sensor_id;sensor_type;location;lat;lon;timestamp;temperature;humidity
40828;DHT22;26549;50.918;5.338;2023-11-21T00:01:57;11.10;99.90
40828;DHT22;26549;50.918;5.338;2023-11-21T00:04:23;11.00;99.90
40828;DHT22;26549;50.918;5.338;2023-11-21T00:06:50;11.00;99.90
40828;DHT22;26549;50.918;5.338;2023-11-21T00:09:15;11.10;99.90
40828;DHT22;26549;50.918;5.338;2023-11-21T00:11:43;11.10;99.90
40828;DHT22;26549;50.918;5.338;2023-11-21T00:14:10;11.10;99.90
40828;DHT22;26549;50.918;5.338;2023-11-21T00:16:36;11.20;99.90
40828;DHT22;26549;50.918;5.338;2023-11-21T00:19:02;11.20;99.90
40828;DHT22;26549;50.918;5.338;2023-11-21T00:21:28;11.20;99.90
40828;DHT22;26549;50.918;5.338;2023-11-21T00:23:53;11.20;99.90
40828;DHT22;26549;50.918;5.338;2023-11-21T00:26:19;11.30;99.90
40828;DHT22;26549;50.918;5.338;2023-11-21T00:28:45;11.30;99.90
40828;DHT22;26549;50.918;5.338;2023-11-21T00:31:11;11.30;99.90
40828;DHT22;26549;50.918;5.338;2023-11-21T00:33:37;11.30;99.90
40828;DHT22;26549;50.918;5.338;2023-11-21T00:36:03;11.30;99.90
40828;DHT22;26549;50.918;5.338;2023-11-21T00:38:28;11.40;99.90
40828;DHT22;26549;50.918;5.338;2023-11-21T00:40:54;11.40;99.90
40828;DHT22;26549;50.918;5.338;2023-11-21T00:43:24;11.30;99.90
40828;DHT22;26549;50.918;5.338;2023-11-21T00:45:50;11.30;99.90
40828;DHT22;26549;50.918;5.338;2023-11-21T00:48:16;11.20;99.90
40828;DHT22;26549;50.918;5.338;2023-11-21T00:50:43;11.30;99.90
40828;DHT22;26549;50.918;5.338;2023-11-21T00:53:09;11.30;99.90
40828;DHT22;26549;50.918;5.338;2023-11-21T00:55:36;11.40;99.90
40828;DHT22;26549;50.918;5.338;2023-11-21T00:58:02;11.30;99.90
40828;DHT22;26549;50.918;5.338;2023-11-21T01:00:30;11.30;99.90
40828;DHT22;26549;50.918;5.338;2023-11-21T01:02:56;11.30;99.90
40828;DHT22;26549;50.918;5.338;2023-11-21T01:05:22;11.30;99.90
40828;DHT22;26549;50.918;5.338;2023-11-21T01:07:47;11.20;99.90
40828;DHT22;26549;50.918;5.338;2023-11-21T01:10:13;11.20;99.90
40828;DHT22;26549;50.918;5.338;2023-11-21T01:12:39;11.20;99.90
40828;DHT22;26549;50.918;5.338;2023-11-21T01:15:06;11.20;99.90
40828;DHT22;26549;50.918;5.338;2023-11-21T01:17:37;11.30;99.90
40828;DHT22;26549;50.918;5.338;2023-11-21T01:20:05;11.30;99.90
40828;DHT22;26549;50.918;5.338;2023-11-21T01:22:37;11.30;99.90
40828;DHT22;26549;50.918;5.338;2023-11-21T01:25:05;11.20;99.90
40828;DHT22;26549;50.918;5.338;2023-11-21T01:27:36;11.10;99.90
40828;DHT22;26549;50.918;5.338;2023-11-21T01:30:05;11.20;99.90
40828;DHT22;26549;50.918;5.338;2023-11-21T01:32:33;11.30;99.90
40828;DHT22;26549;50.918;5.338;2023-11-21T01:34:59;11.30;99.90
40828;DHT22;26549;50.918;5.338;2023-11-21T01:37:25;11.30;99.90
40828;DHT22;26549;50.918;5.338;2023-11-21T01:39:54;11.30;99.90
40828;DHT22;26549;50.918;5.338;2023-11-21T01:42:21;11.30;99.90
40828;DHT22;26549;50.918;5.338;2023-11-21T01:44:46;11.30;99.90
40828;DHT22;26549;50.918;5.338;2023-11-21T01:47:13;11.20;99.90
40828;DHT22;26549;50.918;5.338;2023-11-21T01:49:39;11.20;99.90
40828;DHT22;26549;50.918;5.338;2023-11-21T01:52:06;11.20;99.90
40828;DHT22;26549;50.918;5.338;2023-11-21T01:54:32;11.30;99.90
40828;DHT22;26549;50.918;5.338;2023-11-21T01:56:59;11.30;99.90
40828;DHT22;26549;50.918;5.338;2023-11-21T01:59:36;11.40;99.90
40828;DHT22;26549;50.918;5.338;2023-11-21T02:02:06;11.40;99.90
40828;DHT22;26549;50.918;5.338;2023-11-21T02:04:33;11.20;99.90
40828;DHT22;26549;50.918;5.338;2023-11-21T02:06:59;11.30;99.90
40828;DHT22;26549;50.918;5.338;2023-11-21T02:09:28;11.30;99.90
40828;DHT22;26549;50.918;5.338;2023-11-21T02:11:57;11.20;99.90
40828;DHT22;26549;50.918;5.338;2023-11-21T02:14:26;11.40;99.90
40828;DHT22;26549;50.918;5.338;2023-11-21T02:16:54;11.30;99.90
40828;DHT22;26549;50.918;5.338;2023-11-21T02:19:21;11.30;99.90
40828;DHT22;26549;50.918;5.338;2023-11-21T02:21:50;11.30;99.90
40828;DHT22;26549;50.918;5.338;2023-11-21T02:24:20;11.30;99.90
40828;DHT22;26549;50.918;5.338;2023-11-21T02:26:47;11.30;99.90
40828;DHT22;26549;50.918;5.338;2023-11-21T02:29:13;11.40;99.90
40828;DHT22;26549;50.918;5.338;2023-11-21T02:31:39;11.40;99.90
40828;DHT22;26549;50.918;5.338;2023-11-21T02:34:16;11.30;99.90
40828;DHT22;26549;50.918;5.338;2023-11-21T02:36:44;11.30;99.90
40828;DHT22;26549;50.918;5.338;2023-11-21T02:39:10;11.30;99.90
40828;DHT22;26549;50.918;5.338;2023-11-21T02:41:37;11.30;99.90
40828;DHT22;26549;50.918;5.338;2023-11-21T02:44:07;11.30;99.90
40828;DHT22;26549;50.918;5.338;2023-11-21T02:46:34;11.30;99.90
40828;DHT22;26549;50.918;5.338;2023-11-21T02:49:03;11.30;99.90
40828;DHT22;26549;50.918;5.338;2023-11-21T02:51:30;11.30;99.90
40828;DHT22;26549;50.918;5.338;2023-11-21T02:53:56;11.20;99.90
40828;DHT22;26549;50.918;5.338;2023-11-21T02:56:26;11.20;99.90
40828;DHT22;26549;50.918;5.338;2023-11-21T02:58:55;11.30;99.90
40828;DHT22;26549;50.918;5.338;2023-11-21T03:01:21;11.20;99.90
40828;DHT22;26549;50.918;5.338;2023-11-21T03:03:46;11.20;99.90
40828;DHT22;26549;50.918;5.338;2023-11-21T03:06:13;11.20;99.90
40828;DHT22;26549;50.918;5.338;2023-11-21T03:08:38;11.20;99.90
40828;DHT22;26549;50.918;5.338;2023-11-21T03:11:04;11.30;99.90
40828;DHT22;26549;50.918;5.338;2023-11-21T03:13:30;11.10;99.90
40828;DHT22;26549;50.918;5.338;2023-11-21T03:15:56;11.10;99.90
40828;DHT22;26549;50.918;5.338;2023-11-21T03:18:21;11.10;99.90
40828;DHT22;26549;50.918;5.338;2023-11-21T03:20:48;11.20;99.90
40828;DHT22;26549;50.918;5.338;2023-11-21T03:23:14;11.10;99.90
40828;DHT22;26549;50.918;5.338;2023-11-21T03:25:40;11.10;99.90
40828;DHT22;26549;50.918;5.338;2023-11-21T03:28:06;11.10;99.90
40828;DHT22;26549;50.918;5.338;2023-11-21T03:30:33;11.00;99.90
40828;DHT22;26549;50.918;5.338;2023-11-21T03:32:59;11.00;99.90
40828;DHT22;26549;50.918;5.338;2023-11-21T03:35:25;11.10;99.90
40828;DHT22;26549;50.918;5.338;2023-11-21T03:37:51;11.10;99.90
40828;DHT22;26549;50.918;5.338;2023-11-21T03:40:17;11.10;99.90
40828;DHT22;26549;50.918;5.338;2023-11-21T03:42:43;11.00;99.90
40828;DHT22;26549;50.918;5.338;2023-11-21T03:45:09;10.90;99.90
40828;DHT22;26549;50.918;5.338;2023-11-21T03:47:35;11.00;99.90
40828;DHT22;26549;50.918;5.338;2023-11-21T03:50:00;10.90;99.90
40828;DHT22;26549;50.918;5.338;2023-11-21T03:52:26;10.90;99.90
40828;DHT22;26549;50.918;5.338;2023-11-21T03:54:54;11.00;99.90
40828;DHT22;26549;50.918;5.338;2023-11-21T03:57:20;11.00;99.90
40828;DHT22;26549;50.918;5.338;2023-11-21T03:59:46;11.00;99.90
40828;DHT22;26549;50.918;5.338;2023-11-21T04:02:12;11.10;99.90
40828;DHT22;26549;50.918;5.338;2023-11-21T04:04:40;11.10;99.90
40828;DHT22;26549;50.918;5.338;2023-11-21T04:07:06;11.20;99.90
40828;DHT22;26549;50.918;5.338;2023-11-21T04:09:31;11.10;99.90
40828;DHT22;26549;50.918;5.338;2023-11-21T04:11:57;11.00;99.90
40828;DHT22;26549;50.918;5.338;2023-11-21T04:14:24;11.10;99.90
40828;DHT22;26549;50.918;5.338;2023-11-21T04:16:50;11.10;99.90
40828;DHT22;26549;50.918;5.338;2023-11-21T04:19:15;11.10;99.90
40828;DHT22;26549;50.918;5.338;2023-11-21T04:21:42;11.20;99.90
40828;DHT22;26549;50.918;5.338;2023-11-21T04:24:08;11.10;99.90
40828;DHT22;26549;50.918;5.338;2023-11-21T04:26:34;11.00;99.90
40828;DHT22;26549;50.918;5.338;2023-11-21T04:29:00;11.00;99.90
40828;DHT22;26549;50.918;5.338;2023-11-21T04:31:27;11.00;99.90
40828;DHT22;26549;50.918;5.338;2023-11-21T04:33:52;11.00;99.90
40828;DHT22;26549;50.918;5.338;2023-11-21T04:36:19;11.10;99.90
40828;DHT22;26549;50.918;5.338;2023-11-21T04:38:45;11.20;99.90
40828;DHT22;26549;50.918;5.338;2023-11-21T04:41:11;11.10;99.90
40828;DHT22;26549;50.918;5.338;2023-11-21T04:43:37;11.10;99.90
40828;DHT22;26549;50.918;5.338;2023-11-21T04:46:03;11.10;99.90
40828;DHT22;26549;50.918;5.338;2023-11-21T04:48:28;11.10;99.90
40828;DHT22;26549;50.918;5.338;2023-11-21T04:50:54;11.10;99.90
40828;DHT22;26549;50.918;5.338;2023-11-21T04:53:20;11.10;99.90
40828;DHT22;26549;50.918;5.338;2023-11-21T04:55:46;11.00;99.90
40828;DHT22;26549;50.918;5.338;2023-11-21T04:58:12;11.00;99.90
40828;DHT22;26549;50.918;5.338;2023-11-21T05:00:38;10.90;99.90
40828;DHT22;26549;50.918;5.338;2023-11-21T05:03:04;10.80;99.90
40828;DHT22;26549;50.918;5.338;2023-11-21T05:05:30;10.90;99.90
40828;DHT22;26549;50.918;5.338;2023-11-21T05:07:56;11.00;99.90
40828;DHT22;26549;50.918;5.338;2023-11-21T05:10:22;11.00;99.90
40828;DHT22;26549;50.918;5.338;2023-11-21T05:12:48;11.00;99.90
40828;DHT22;26549;50.918;5.338;2023-11-21T05:15:16;10.90;99.90
40828;DHT22;26549;50.918;5.338;2023-11-21T05:17:46;10.90;99.90
40828;DHT22;26549;50.918;5.338;2023-11-21T05:20:15;10.90;99.90
40828;DHT22;26549;50.918;5.338;2023-11-21T05:22:47;10.90;99.90
40828;DHT22;26549;50.918;5.338;2023-11-21T05:25:14;10.80;99.90
40828;DHT22;26549;50.918;5.338;2023-11-21T05:27:39;10.80;99.90
40828;DHT22;26549;50.918;5.338;2023-11-21T05:30:06;11.00;99.90
40828;DHT22;26549;50.918;5.338;2023-11-21T05:32:32;11.00;99.90
40828;DHT22;26549;50.918;5.338;2023-11-21T05:34:58;11.00;99.90
40828;DHT22;26549;50.918;5.338;2023-11-21T05:37:24;11.00;99.90
40828;DHT22;26549;50.918;5.338;2023-11-21T05:39:53;11.00;99.90
40828;DHT22;26549;50.918;5.338;2023-11-21T05:42:20;11.10;99.90
40828;DHT22;26549;50.918;5.338;2023-11-21T05:44:46;11.00;99.90
40828;DHT22;26549;50.918;5.338;2023-11-21T05:47:12;11.10;99.90
40828;DHT22;26549;50.918;5.338;2023-11-21T05:49:39;11.00;99.90
40828;DHT22;26549;50.918;5.338;2023-11-21T05:52:05;11.00;99.90
40828;DHT22;26549;50.918;5.338;2023-11-21T05:54:31;11.00;99.90
40828;DHT22;26549;50.918;5.338;2023-11-21T05:56:57;11.00;99.90
40828;DHT22;26549;50.918;5.338;2023-11-21T05:59:23;11.00;99.90
40828;DHT22;26549;50.918;5.338;2023-11-21T06:01:49;10.90;99.90
40828;DHT22;26549;50.918;5.338;2023-11-21T06:04:15;10.80;99.90
40828;DHT22;26549;50.918;5.338;2023-11-21T06:06:41;10.70;99.90
40828;DHT22;26549;50.918;5.338;2023-11-21T06:09:06;10.70;99.90
40828;DHT22;26549;50.918;5.338;2023-11-21T06:11:35;10.80;99.90
40828;DHT22;26549;50.918;5.338;2023-11-21T06:14:02;10.80;99.90
40828;DHT22;26549;50.918;5.338;2023-11-21T06:16:27;10.90;99.90
40828;DHT22;26549;50.918;5.338;2023-11-21T06:18:53;10.90;99.90
40828;DHT22;26549;50.918;5.338;2023-11-21T06:21:19;11.00;99.90
40828;DHT22;26549;50.918;5.338;2023-11-21T06:23:45;10.90;99.90
40828;DHT22;26549;50.918;5.338;2023-11-21T06:26:13;10.90;99.90
40828;DHT22;26549;50.918;5.338;2023-11-21T06:28:39;11.00;99.90
40828;DHT22;26549;50.918;5.338;2023-11-21T06:31:05;11.00;99.90
40828;DHT22;26549;50.918;5.338;2023-11-21T06:33:32;11.00;99.90
40828;DHT22;26549;50.918;5.338;2023-11-21T06:35:57;11.00;99.90
40828;DHT22;26549;50.918;5.338;2023-11-21T06:38:23;10.90;99.90
40828;DHT22;26549;50.918;5.338;2023-11-21T06:40:49;10.90;99.90
40828;DHT22;26549;50.918;5.338;2023-11-21T06:43:15;11.00;99.90
40828;DHT22;26549;50.918;5.338;2023-11-21T06:45:41;11.00;99.90
40828;DHT22;26549;50.918;5.338;2023-11-21T06:48:07;11.10;99.90
40828;DHT22;26549;50.918;5.338;2023-11-21T06:50:33;11.10;99.90
40828;DHT22;26549;50.918;5.338;2023-11-21T06:52:58;11.10;99.90
40828;DHT22;26549;50.918;5.338;2023-11-21T06:55:24;11.10;99.90
40828;DHT22;26549;50.918;5.338;2023-11-21T06:57:50;11.00;99.90
40828;DHT22;26549;50.918;5.338;2023-11-21T07:00:17;11.10;99.90
40828;DHT22;26549;50.918;5.338;2023-11-21T07:02:44;10.90;99.90
40828;DHT22;26549;50.918;5.338;2023-11-21T07:05:10;11.00;99.90
40828;DHT22;26549;50.918;5.338;2023-11-21T07:07:36;10.90;99.90
40828;DHT22;26549;50.918;5.338;2023-11-21T07:10:03;10.90;99.90
40828;DHT22;26549;50.918;5.338;2023-11-21T07:12:30;11.00;99.90
40828;DHT22;26549;50.918;5.338;2023-11-21T07:14:57;11.20;99.90
40828;DHT22;26549;50.918;5.338;2023-11-21T07:17:22;11.20;99.90
40828;DHT22;26549;50.918;5.338;2023-11-21T07:19:48;11.30;99.90
40828;DHT22;26549;50.918;5.338;2023-11-21T07:22:15;11.20;99.90
40828;DHT22;26549;50.918;5.338;2023-11-21T07:24:48;11.20;99.90
40828;DHT22;26549;50.918;5.338;2023-11-21T07:27:15;11.30;99.90
40828;DHT22;26549;50.918;5.338;2023-11-21T07:29:41;11.30;99.90
40828;DHT22;26549;50.918;5.338;2023-11-21T07:32:07;11.30;99.90
40828;DHT22;26549;50.918;5.338;2023-11-21T07:34:34;11.20;99.90
40828;DHT22;26549;50.918;5.338;2023-11-21T07:37:00;11.20;99.90
40828;DHT22;26549;50.918;5.338;2023-11-21T07:39:27;11.20;99.90
40828;DHT22;26549;50.918;5.338;2023-11-21T07:41:52;11.30;99.90
40828;DHT22;26549;50.918;5.338;2023-11-21T07:44:21;11.30;99.90
40828;DHT22;26549;50.918;5.338;2023-11-21T07:46:48;11.30;99.90
40828;DHT22;26549;50.918;5.338;2023-11-21T07:49:15;11.40;99.90
40828;DHT22;26549;50.918;5.338;2023-11-21T07:51:44;11.30;99.90
40828;DHT22;26549;50.918;5.338;2023-11-21T07:54:10;11.40;99.90
40828;DHT22;26549;50.918;5.338;2023-11-21T07:56:36;11.40;99.90
40828;DHT22;26549;50.918;5.338;2023-11-21T07:59:02;11.50;99.90
40828;DHT22;26549;50.918;5.338;2023-11-21T08:01:28;11.50;99.90
40828;DHT22;26549;50.918;5.338;2023-11-21T08:03:54;11.50;99.90
40828;DHT22;26549;50.918;5.338;2023-11-21T08:06:23;11.50;99.90
40828;DHT22;26549;50.918;5.338;2023-11-21T08:08:49;11.50;99.90
40828;DHT22;26549;50.918;5.338;2023-11-21T08:11:17;11.50;99.90
40828;DHT22;26549;50.918;5.338;2023-11-21T08:13:44;11.50;99.90
40828;DHT22;26549;50.918;5.338;2023-11-21T08:16:09;11.60;99.90
40828;DHT22;26549;50.918;5.338;2023-11-21T08:18:35;11.70;99.90
40828;DHT22;26549;50.918;5.338;2023-11-21T08:21:01;11.70;99.90
40828;DHT22;26549;50.918;5.338;2023-11-21T08:23:27;11.70;99.90
40828;DHT22;26549;50.918;5.338;2023-11-21T08:25:53;11.60;99.90
40828;DHT22;26549;50.918;5.338;2023-11-21T08:28:19;11.70;99.90
40828;DHT22;26549;50.918;5.338;2023-11-21T08:30:47;11.70;99.90
40828;DHT22;26549;50.918;5.338;2023-11-21T08:33:13;11.60;99.90
40828;DHT22;26549;50.918;5.338;2023-11-21T08:35:39;11.50;99.90
40828;DHT22;26549;50.918;5.338;2023-11-21T08:38:06;11.40;99.90
40828;DHT22;26549;50.918;5.338;2023-11-21T08:40:32;11.50;99.90
40828;DHT22;26549;50.918;5.338;2023-11-21T08:42:57;11.50;99.90
40828;DHT22;26549;50.918;5.338;2023-11-21T08:45:24;11.60;99.90
40828;DHT22;26549;50.918;5.338;2023-11-21T08:47:51;11.60;99.90
40828;DHT22;26549;50.918;5.338;2023-11-21T08:50:17;11.60;99.90
40828;DHT22;26549;50.918;5.338;2023-11-21T08:52:44;11.70;99.90
40828;DHT22;26549;50.918;5.338;2023-11-21T08:55:11;11.70;99.90
40828;DHT22;26549;50.918;5.338;2023-11-21T08:57:44;11.70;99.90
40828;DHT22;26549;50.918;5.338;2023-11-21T09:00:10;11.80;99.90
40828;DHT22;26549;50.918;5.338;2023-11-21T09:02:41;11.80;99.90
40828;DHT22;26549;50.918;5.338;2023-11-21T09:05:10;11.80;99.90
40828;DHT22;26549;50.918;5.338;2023-11-21T09:07:37;11.80;99.90
40828;DHT22;26549;50.918;5.338;2023-11-21T09:10:04;11.90;99.90
40828;DHT22;26549;50.918;5.338;2023-11-21T09:12:33;11.90;99.90
40828;DHT22;26549;50.918;5.338;2023-11-21T09:15:02;11.90;99.90
40828;DHT22;26549;50.918;5.338;2023-11-21T09:17:28;11.90;99.90
40828;DHT22;26549;50.918;5.338;2023-11-21T09:19:56;12.00;99.90
40828;DHT22;26549;50.918;5.338;2023-11-21T09:22:23;12.10;99.90
40828;DHT22;26549;50.918;5.338;2023-11-21T09:24:52;12.10;99.90
40828;DHT22;26549;50.918;5.338;2023-11-21T09:27:20;12.00;99.90
40828;DHT22;26549;50.918;5.338;2023-11-21T09:29:47;12.00;99.90
40828;DHT22;26549;50.918;5.338;2023-11-21T09:32:14;12.00;99.90
40828;DHT22;26549;50.918;5.338;2023-11-21T09:34:42;11.90;99.90
40828;DHT22;26549;50.918;5.338;2023-11-21T09:37:08;12.10;99.90
40828;DHT22;26549;50.918;5.338;2023-11-21T09:39:34;12.10;99.90
40828;DHT22;26549;50.918;5.338;2023-11-21T09:42:12;12.00;99.90
40828;DHT22;26549;50.918;5.338;2023-11-21T09:45:05;12.00;99.90
40828;DHT22;26549;50.918;5.338;2023-11-21T09:47:37;12.10;99.90
40828;DHT22;26549;50.918;5.338;2023-11-21T09:50:07;12.10;99.90
40828;DHT22;26549;50.918;5.338;2023-11-21T09:55:27;12.20;99.90
40828;DHT22;26549;50.918;5.338;2023-11-21T09:57:58;12.10;99.90
40828;DHT22;26549;50.918;5.338;2023-11-21T10:00:25;12.10;99.90
40828;DHT22;26549;50.918;5.338;2023-11-21T10:02:56;12.20;99.90
40828;DHT22;26549;50.918;5.338;2023-11-21T10:05:26;12.20;99.90
40828;DHT22;26549;50.918;5.338;2023-11-21T10:07:56;12.30;99.90
40828;DHT22;26549;50.918;5.338;2023-11-21T10:10:26;12.30;99.90
40828;DHT22;26549;50.918;5.338;2023-11-21T10:12:57;12.30;99.90
40828;DHT22;26549;50.918;5.338;2023-11-21T10:15:29;12.20;99.90
40828;DHT22;26549;50.918;5.338;2023-11-21T10:17:58;12.30;99.90
40828;DHT22;26549;50.918;5.338;2023-11-21T10:20:25;12.40;99.90
40828;DHT22;26549;50.918;5.338;2023-11-21T10:22:53;12.40;99.90
40828;DHT22;26549;50.918;5.338;2023-11-21T10:25:22;12.40;99.90
40828;DHT22;26549;50.918;5.338;2023-11-21T10:27:49;12.40;99.90
40828;DHT22;26549;50.918;5.338;2023-11-21T10:30:18;12.40;99.90
40828;DHT22;26549;50.918;5.338;2023-11-21T10:32:47;12.40;99.90
40828;DHT22;26549;50.918;5.338;2023-11-21T10:35:14;12.40;99.90
40828;DHT22;26549;50.918;5.338;2023-11-21T10:37:42;12.40;99.90
40828;DHT22;26549;50.918;5.338;2023-11-21T10:40:13;12.40;99.90
40828;DHT22;26549;50.918;5.338;2023-11-21T10:42:42;12.50;99.90
40828;DHT22;26549;50.918;5.338;2023-11-21T10:45:09;12.50;99.90
40828;DHT22;26549;50.918;5.338;2023-11-21T10:47:39;12.50;99.90
40828;DHT22;26549;50.918;5.338;2023-11-21T10:50:07;12.60;99.90
40828;DHT22;26549;50.918;5.338;2023-11-21T10:52:42;12.50;99.90
40828;DHT22;26549;50.918;5.338;2023-11-21T10:55:25;12.40;99.90
40828;DHT22;26549;50.918;5.338;2023-11-21T10:57:53;12.30;99.90
40828;DHT22;26549;50.918;5.338;2023-11-21T11:00:22;12.40;99.90
40828;DHT22;26549;50.918;5.338;2023-11-21T11:02:51;12.50;99.90
40828;DHT22;26549;50.918;5.338;2023-11-21T11:05:20;12.60;99.90
40828;DHT22;26549;50.918;5.338;2023-11-21T11:08:06;12.40;99.90
40828;DHT22;26549;50.918;5.338;2023-11-21T11:10:38;12.60;99.90
40828;DHT22;26549;50.918;5.338;2023-11-21T11:13:04;12.70;99.90
40828;DHT22;26549;50.918;5.338;2023-11-21T11:15:32;12.80;99.90
40828;DHT22;26549;50.918;5.338;2023-11-21T11:17:59;12.70;99.90
40828;DHT22;26549;50.918;5.338;2023-11-21T11:20:33;12.80;99.90
40828;DHT22;26549;50.918;5.338;2023-11-21T11:28:26;12.60;99.90
40828;DHT22;26549;50.918;5.338;2023-11-21T11:31:13;12.50;99.90
40828;DHT22;26549;50.918;5.338;2023-11-21T11:42:18;12.60;99.90
40828;DHT22;26549;50.918;5.338;2023-11-21T11:44:47;12.70;99.90
40828;DHT22;26549;50.918;5.338;2023-11-21T11:50:10;12.70;99.90
40828;DHT22;26549;50.918;5.338;2023-11-21T11:52:40;12.80;99.90
40828;DHT22;26549;50.918;5.338;2023-11-21T11:55:14;12.70;99.90
40828;DHT22;26549;50.918;5.338;2023-11-21T11:57:44;12.50;99.90
40828;DHT22;26549;50.918;5.338;2023-11-21T12:00:33;12.60;99.90
40828;DHT22;26549;50.918;5.338;2023-11-21T12:03:03;12.60;99.90
40828;DHT22;26549;50.918;5.338;2023-11-21T12:05:31;12.60;99.90
40828;DHT22;26549;50.918;5.338;2023-11-21T12:08:05;12.70;99.90
40828;DHT22;26549;50.918;5.338;2023-11-21T12:10:35;12.70;99.90
40828;DHT22;26549;50.918;5.338;2023-11-21T12:13:05;12.60;99.90
40828;DHT22;26549;50.918;5.338;2023-11-21T12:15:35;12.70;99.90
40828;DHT22;26549;50.918;5.338;2023-11-21T12:18:02;12.70;99.90
40828;DHT22;26549;50.918;5.338;2023-11-21T12:20:30;12.60;99.90
40828;DHT22;26549;50.918;5.338;2023-11-21T12:23:00;12.70;99.90
40828;DHT22;26549;50.918;5.338;2023-11-21T12:25:30;12.60;99.90
40828;DHT22;26549;50.918;5.338;2023-11-21T12:28:03;12.60;99.90
40828;DHT22;26549;50.918;5.338;2023-11-21T12:30:32;12.50;99.90
40828;DHT22;26549;50.918;5.338;2023-11-21T12:33:01;12.60;99.90
40828;DHT22;26549;50.918;5.338;2023-11-21T12:35:30;12.60;99.90
40828;DHT22;26549;50.918;5.338;2023-11-21T12:38:02;12.70;99.90
40828;DHT22;26549;50.918;5.338;2023-11-21T12:40:29;12.70;99.90
40828;DHT22;26549;50.918;5.338;2023-11-21T12:43:00;12.70;99.90
40828;DHT22;26549;50.918;5.338;2023-11-21T12:45:32;12.70;99.90
40828;DHT22;26549;50.918;5.338;2023-11-21T12:48:05;12.70;99.90
40828;DHT22;26549;50.918;5.338;2023-11-21T12:50:37;12.80;99.90
40828;DHT22;26549;50.918;5.338;2023-11-21T12:53:08;12.60;99.90
40828;DHT22;26549;50.918;5.338;2023-11-21T12:55:45;12.60;99.90
40828;DHT22;26549;50.918;5.338;2023-11-21T12:58:20;12.60;99.90
40828;DHT22;26549;50.918;5.338;2023-11-21T13:00:52;12.30;99.90
40828;DHT22;26549;50.918;5.338;2023-11-21T13:03:19;12.10;99.90
40828;DHT22;26549;50.918;5.338;2023-11-21T13:05:53;12.20;99.90
40828;DHT22;26549;50.918;5.338;2023-11-21T13:08:25;12.20;99.90
40828;DHT22;26549;50.918;5.338;2023-11-21T13:10:56;12.20;99.90
40828;DHT22;26549;50.918;5.338;2023-11-21T13:13:27;12.30;99.90
40828;DHT22;26549;50.918;5.338;2023-11-21T13:15:58;12.20;99.90
40828;DHT22;26549;50.918;5.338;2023-11-21T13:18:28;12.20;99.90
40828;DHT22;26549;50.918;5.338;2023-11-21T13:20:58;12.20;99.90
40828;DHT22;26549;50.918;5.338;2023-11-21T13:23:27;12.10;99.90
40828;DHT22;26549;50.918;5.338;2023-11-21T13:25:57;12.10;99.90
40828;DHT22;26549;50.918;5.338;2023-11-21T13:28:24;12.00;99.90
40828;DHT22;26549;50.918;5.338;2023-11-21T13:31:00;12.10;99.90
40828;DHT22;26549;50.918;5.338;2023-11-21T13:33:36;12.30;99.90
40828;DHT22;26549;50.918;5.338;2023-11-21T13:36:05;12.20;99.90
40828;DHT22;26549;50.918;5.338;2023-11-21T13:38:35;12.20;99.90
40828;DHT22;26549;50.918;5.338;2023-11-21T13:41:06;12.30;99.90
40828;DHT22;26549;50.918;5.338;2023-11-21T13:43:34;12.10;99.90
40828;DHT22;26549;50.918;5.338;2023-11-21T13:46:00;12.20;99.90
40828;DHT22;26549;50.918;5.338;2023-11-21T13:48:29;12.20;99.90
40828;DHT22;26549;50.918;5.338;2023-11-21T13:51:07;12.10;99.90
40828;DHT22;26549;50.918;5.338;2023-11-21T13:53:44;12.30;99.90
40828;DHT22;26549;50.918;5.338;2023-11-21T13:56:12;12.20;99.90
40828;DHT22;26549;50.918;5.338;2023-11-21T13:58:41;12.40;99.90
40828;DHT22;26549;50.918;5.338;2023-11-21T14:01:13;12.50;99.90
40828;DHT22;26549;50.918;5.338;2023-11-21T14:03:59;12.40;99.90
40828;DHT22;26549;50.918;5.338;2023-11-21T14:06:51;12.50;99.90
40828;DHT22;26549;50.918;5.338;2023-11-21T14:09:22;12.50;99.90
40828;DHT22;26549;50.918;5.338;2023-11-21T14:11:50;12.40;99.90
40828;DHT22;26549;50.918;5.338;2023-11-21T14:14:17;12.40;99.90
40828;DHT22;26549;50.918;5.338;2023-11-21T14:16:43;12.40;99.90
40828;DHT22;26549;50.918;5.338;2023-11-21T14:19:10;12.40;99.90
40828;DHT22;26549;50.918;5.338;2023-11-21T14:21:42;12.40;99.90
40828;DHT22;26549;50.918;5.338;2023-11-21T14:24:09;12.50;99.90
40828;DHT22;26549;50.918;5.338;2023-11-21T14:26:35;12.30;99.90
40828;DHT22;26549;50.918;5.338;2023-11-21T14:29:01;12.30;99.90
40828;DHT22;26549;50.918;5.338;2023-11-21T14:31:28;12.30;99.90
40828;DHT22;26549;50.918;5.338;2023-11-21T14:33:57;12.30;99.90
40828;DHT22;26549;50.918;5.338;2023-11-21T14:36:22;12.20;99.90
40828;DHT22;26549;50.918;5.338;2023-11-21T14:38:49;12.20;99.90
40828;DHT22;26549;50.918;5.338;2023-11-21T14:41:17;12.20;99.90
40828;DHT22;26549;50.918;5.338;2023-11-21T14:43:43;12.30;99.90
40828;DHT22;26549;50.918;5.338;2023-11-21T14:46:11;12.30;99.90
40828;DHT22;26549;50.918;5.338;2023-11-21T14:48:41;12.30;99.90
40828;DHT22;26549;50.918;5.338;2023-11-21T14:51:13;12.40;99.90
40828;DHT22;26549;50.918;5.338;2023-11-21T14:53:56;12.30;99.90
40828;DHT22;26549;50.918;5.338;2023-11-21T14:56:26;12.30;99.90
40828;DHT22;26549;50.918;5.338;2023-11-21T14:58:57;12.20;99.90
40828;DHT22;26549;50.918;5.338;2023-11-21T15:01:26;12.30;99.90
40828;DHT22;26549;50.918;5.338;2023-11-21T15:04:30;12.30;99.90
40828;DHT22;26549;50.918;5.338;2023-11-21T15:07:04;12.40;99.90
40828;DHT22;26549;50.918;5.338;2023-11-21T15:09:30;12.50;99.90
40828;DHT22;26549;50.918;5.338;2023-11-21T15:12:07;12.50;99.90
40828;DHT22;26549;50.918;5.338;2023-11-21T15:14:44;12.50;99.90
40828;DHT22;26549;50.918;5.338;2023-11-21T15:17:13;12.60;99.90
40828;DHT22;26549;50.918;5.338;2023-11-21T15:19:48;12.40;99.90
40828;DHT22;26549;50.918;5.338;2023-11-21T15:22:14;12.50;99.90
40828;DHT22;26549;50.918;5.338;2023-11-21T15:24:42;12.40;99.90
40828;DHT22;26549;50.918;5.338;2023-11-21T15:27:10;12.40;99.90
40828;DHT22;26549;50.918;5.338;2023-11-21T15:29:37;12.30;99.90
40828;DHT22;26549;50.918;5.338;2023-11-21T15:32:05;12.20;99.90
40828;DHT22;26549;50.918;5.338;2023-11-21T15:34:32;12.10;99.90
40828;DHT22;26549;50.918;5.338;2023-11-21T15:36:58;12.10;99.90
40828;DHT22;26549;50.918;5.338;2023-11-21T15:39:24;12.00;99.90
40828;DHT22;26549;50.918;5.338;2023-11-21T15:41:54;12.10;99.90
40828;DHT22;26549;50.918;5.338;2023-11-21T15:44:23;12.10;99.90
40828;DHT22;26549;50.918;5.338;2023-11-21T15:46:55;12.00;99.90
40828;DHT22;26549;50.918;5.338;2023-11-21T15:49:21;12.00;99.90
40828;DHT22;26549;50.918;5.338;2023-11-21T15:51:49;12.00;99.90
40828;DHT22;26549;50.918;5.338;2023-11-21T15:54:24;12.00;99.90
40828;DHT22;26549;50.918;5.338;2023-11-21T15:56:52;12.10;99.90